Time;durP1;ratioP1;P1;durP2;ratioP2;P2;SDS_P1;SDS_P2;PMS_P1;PMS_P2;Temp;Humidity;BMP_temperature;BMP_pressure;BME280_temperature;BME280_humidity;BME280_pressure;Samples;Min_cycle;Max_cycle;Signal;HPM_P1;HPM_P2
2021/04/11 00:00:34;;;;;;;20.63;10.45;;;;;;;9.21;91.51;100313.53;4981269;28;20495;-65
2021/04/11 00:03:02;;;;;;;13.20;8.98;;;;;;;9.21;91.45;100317.84;4984832;28;20365;-65
2021/04/11 00:05:30;;;;;;;16.48;8.90;;;;;;;9.17;91.75;100306.69;4980752;28;20055;-65
2021/04/11 00:07:57;;;;;;;12.85;9.73;;;;;;;9.16;91.42;100305.84;4971809;28;20063;-66
2021/04/11 00:10:27;;;;;;;13.23;9.38;;;;;;;9.19;91.38;100304.91;4973480;28;20057;-66
2021/04/11 00:12:52;;;;;;;14.45;9.68;;;;;;;9.16;91.15;100299.78;4984619;28;20049;-66
2021/04/11 00:15:19;;;;;;;15.40;10.02;;;;;;;9.18;91.59;100301.44;4971800;28;20047;-66
2021/04/11 00:17:46;;;;;;;15.73;10.07;;;;;;;9.20;91.54;100293.66;4975203;28;20054;-66
2021/04/11 00:20:14;;;;;;;14.25;9.77;;;;;;;9.22;91.54;100299.66;4981269;28;20042;-65
2021/04/11 00:22:41;;;;;;;16.58;10.13;;;;;;;9.23;91.73;100288.41;4986689;28;20053;-66
2021/04/11 00:25:08;;;;;;;15.10;9.75;;;;;;;9.22;91.77;100294.47;4994384;28;20050;-65
2021/04/11 00:27:34;;;;;;;16.33;9.48;;;;;;;9.22;91.32;100299.66;4993486;28;20054;-65
2021/04/11 00:30:00;;;;;;;14.20;10.20;;;;;;;9.21;91.73;100297.94;4987330;28;20042;-65
2021/04/11 00:32:26;;;;;;;12.73;10.25;;;;;;;9.25;91.72;100296.97;4986674;28;20121;-65
2021/04/11 00:34:53;;;;;;;19.52;12.90;;;;;;;9.32;90.46;100298.59;4994958;28;20096;-65
2021/04/11 00:37:19;;;;;;;31.08;21.08;;;;;;;9.21;89.84;100305.75;4985585;28;20046;-66
2021/04/11 00:39:45;;;;;;;32.58;23.08;;;;;;;9.07;89.31;100299.97;4983266;28;20054;-65
2021/04/11 00:42:20;;;;;;;40.28;28.33;;;;;;;8.79;87.90;100292.72;4986515;28;20057;-66
2021/04/11 00:44:46;;;;;;;45.35;28.95;;;;;;;8.60;88.69;100289.59;4994947;28;20054;-65
2021/04/11 00:47:12;;;;;;;42.78;29.35;;;;;;;8.49;88.44;100287.22;5000305;28;20046;-66
2021/04/11 00:49:42;;;;;;;45.15;30.27;;;;;;;8.31;89.13;100297.00;4979498;28;20057;-68
2021/04/11 00:52:11;;;;;;;48.03;29.98;;;;;;;8.17;88.76;100294.66;4984872;28;20042;-66
2021/04/11 00:54:38;;;;;;;43.65;29.92;;;;;;;7.97;89.32;100286.34;4984102;28;20060;-67
2021/04/11 00:57:07;;;;;;;45.63;28.40;;;;;;;7.75;89.93;100295.28;4990454;28;20043;-66
2021/04/11 00:59:33;;;;;;;36.38;22.80;;;;;;;7.51;89.25;100288.72;4974884;28;20463;-65
2021/04/11 01:01:59;;;;;;;30.98;20.98;;;;;;;7.30;89.73;100295.88;4990072;28;20050;-65
2021/04/11 01:04:25;;;;;;;28.67;19.88;;;;;;;7.22;89.37;100296.88;4974796;28;20059;-64
2021/04/11 01:06:54;;;;;;;28.75;18.27;;;;;;;6.99;89.73;100304.00;4974907;28;20057;-64
2021/04/11 01:09:25;;;;;;;24.60;17.65;;;;;;;6.99;89.40;100305.75;4982534;28;20093;-66
2021/04/11 01:11:54;;;;;;;22.67;15.82;;;;;;;6.91;90.10;100300.66;4992169;28;20061;-66
2021/04/11 01:14:21;;;;;;;17.45;13.15;;;;;;;6.86;89.42;100307.63;4990921;28;20050;-66
2021/04/11 01:16:47;;;;;;;18.58;13.90;;;;;;;6.75;89.66;100306.88;4985228;28;20050;-64
2021/04/11 01:19:18;;;;;;;17.58;12.30;;;;;;;6.63;90.10;100302.69;4991645;28;20077;-66
2021/04/11 01:21:57;;;;;;;18.38;13.38;;;;;;;6.57;90.22;100313.97;4989418;28;20046;-65
2021/04/11 01:24:35;;;;;;;16.75;12.82;;;;;;;6.46;90.48;100308.88;4981428;28;20046;-66
2021/04/11 01:27:01;;;;;;;16.23;12.45;;;;;;;6.40;90.44;100310.66;4974849;28;20508;-66
2021/04/11 01:29:28;;;;;;;13.73;10.43;;;;;;;6.28;89.95;100314.19;4986402;28;20125;-65
2021/04/11 01:31:54;;;;;;;12.57;8.27;;;;;;;6.26;90.01;100310.75;4978868;28;20069;-64
2021/04/11 01:34:21;;;;;;;10.90;7.90;;;;;;;6.19;90.03;100315.13;4992689;28;20050;-66
2021/04/11 01:36:48;;;;;;;9.57;7.35;;;;;;;6.17;89.67;100309.97;4982997;28;20053;-65
2021/04/11 01:39:18;;;;;;;9.32;7.43;;;;;;;6.07;89.30;100304.03;4983176;28;20093;-66
2021/04/11 01:41:45;;;;;;;9.15;6.60;;;;;;;6.03;89.34;100301.50;4981325;28;20076;-65
2021/04/11 01:44:14;;;;;;;8.77;6.57;;;;;;;6.01;89.23;100303.22;4985255;28;20052;-65
2021/04/11 01:46:41;;;;;;;8.88;6.95;;;;;;;5.91;89.75;100303.28;4984908;28;20058;-66
2021/04/11 01:49:07;;;;;;;8.55;6.80;;;;;;;5.92;89.57;100306.69;4985720;28;20384;-65
2021/04/11 01:51:37;;;;;;;8.95;7.07;;;;;;;5.95;90.20;100308.38;4989674;28;20059;-66
2021/04/11 01:54:07;;;;;;;10.68;7.25;;;;;;;5.91;89.82;100310.13;5003719;28;20184;-66
2021/04/11 01:56:33;;;;;;;9.43;7.43;;;;;;;5.90;90.09;100311.00;5013125;28;20062;-65
2021/04/11 01:59:00;;;;;;;9.27;6.85;;;;;;;5.89;89.27;100310.16;5012513;28;20507;-65
2021/04/11 02:01:29;;;;;;;10.13;7.00;;;;;;;5.82;88.68;100311.06;4997337;28;20097;-64
2021/04/11 02:03:56;;;;;;;8.82;6.20;;;;;;;5.76;89.03;100309.38;4984119;28;20046;-64
2021/04/11 02:06:24;;;;;;;9.45;7.00;;;;;;;5.73;88.85;100314.56;4982994;28;20050;-65
2021/04/11 02:08:53;;;;;;;10.23;7.65;;;;;;;5.76;88.81;100316.25;4974760;28;20059;-65
2021/04/11 02:11:19;;;;;;;9.95;7.85;;;;;;;5.77;88.39;100328.28;4989097;28;20061;-65
2021/04/11 02:13:45;;;;;;;12.57;7.70;;;;;;;5.75;88.01;100327.44;4984676;28;20046;-67
2021/04/11 02:16:15;;;;;;;10.98;7.60;;;;;;;5.66;87.83;100323.22;4985216;28;20066;-66
2021/04/11 02:18:42;;;;;;;12.63;8.60;;;;;;;5.52;88.25;100327.56;4974892;28;20046;-68
2021/04/11 02:21:12;;;;;;;11.82;7.88;;;;;;;5.34;88.55;100328.53;4986852;28;20050;-65
2021/04/11 02:23:38;;;;;;;11.32;8.43;;;;;;;5.24;88.43;100322.53;4973590;28;20187;-65
2021/04/11 02:26:08;;;;;;;11.93;7.97;;;;;;;5.16;88.42;100335.47;4976310;28;20459;-68
2021/04/11 02:28:34;;;;;;;11.10;8.27;;;;;;;5.05;89.23;100332.94;4985171;28;20504;-65
2021/04/11 02:31:16;;;;;;;12.05;8.25;;;;;;;4.97;89.11;100337.25;4983832;28;20073;-65
2021/04/11 02:33:51;;;;;;;10.85;7.53;;;;;;;5.01;88.76;100344.09;4982543;28;20042;-65
2021/04/11 02:36:18;;;;;;;;;;;;;;;4.83;88.97;100345.88;4979380;28;20054;-66
2021/04/11 02:38:45;;;;;;;10.13;6.85;;;;;;;4.81;89.37;100363.03;4980882;28;19922;-66
2021/04/11 02:41:12;;;;;;;9.10;6.53;;;;;;;4.81;89.37;100372.50;4973341;28;20047;-66
2021/04/11 02:43:39;;;;;;;8.75;6.00;;;;;;;4.82;88.71;100366.50;4979085;28;20057;-64
2021/04/11 02:46:06;;;;;;;8.50;6.25;;;;;;;4.76;88.89;100366.47;4983634;28;20047;-65
2021/04/11 02:48:31;;;;;;;10.20;6.45;;;;;;;4.73;88.88;100363.94;4991783;28;20046;-66
2021/04/11 02:50:59;;;;;;;9.38;6.35;;;;;;;4.72;88.70;100365.63;4986313;28;20051;-67
2021/04/11 02:53:27;;;;;;;8.82;6.05;;;;;;;4.72;88.40;100377.66;4982485;28;20144;-66
2021/04/11 02:55:54;;;;;;;7.63;5.32;;;;;;;4.63;89.01;100376.81;4979874;28;20046;-65
2021/04/11 02:58:22;;;;;;;6.90;4.95;;;;;;;4.67;88.80;100385.41;5011273;28;20045;-66
2021/04/11 03:00:50;;;;;;;6.97;4.75;;;;;;;4.63;88.65;100394.84;4988956;28;20138;-65
2021/04/11 03:03:17;;;;;;;6.85;4.65;;;;;;;4.58;88.64;100399.13;4979030;28;20456;-66
2021/04/11 03:05:43;;;;;;;6.80;4.93;;;;;;;4.54;88.21;100400.00;4984393;28;20069;-65
2021/04/11 03:08:14;;;;;;;11.27;5.10;;;;;;;4.62;89.20;100402.56;4983602;28;20508;-66
2021/04/11 03:10:46;;;;;;;7.80;4.50;;;;;;;4.64;88.41;100395.69;4987139;28;20059;-65
2021/04/11 03:13:15;;;;;;;6.50;4.32;;;;;;;4.50;88.49;100400.84;4980675;28;20038;-65
2021/04/11 03:15:41;;;;;;;6.05;4.10;;;;;;;4.57;88.16;100404.31;4971805;28;20058;-65
2021/04/11 03:18:08;;;;;;;6.97;4.35;;;;;;;4.61;88.88;100398.28;4979318;28;20043;-64
2021/04/11 03:20:38;;;;;;;6.68;4.22;;;;;;;4.63;88.63;100399.13;4980842;28;20054;-65
2021/04/11 03:23:06;;;;;;;5.65;3.92;;;;;;;4.55;87.49;100406.84;4977859;28;20043;-66
2021/04/11 03:25:36;;;;;;;4.95;3.33;;;;;;;4.47;87.20;100419.75;4991532;28;20396;-66
2021/04/11 03:28:06;;;;;;;7.03;3.97;;;;;;;4.39;87.64;100418.00;4985524;28;20054;-67
2021/04/11 03:30:37;;;;;;;4.90;3.20;;;;;;;4.28;87.70;100410.28;4975598;28;20065;-67
2021/04/11 03:33:06;;;;;;;5.10;3.40;;;;;;;4.26;87.66;100412.84;4980391;28;20080;-65
2021/04/11 03:35:39;;;;;;;5.00;3.17;;;;;;;4.29;88.28;100418.00;4988639;28;20054;-65
2021/04/11 03:38:07;;;;;;;5.28;3.25;;;;;;;4.25;88.26;100418.84;4979114;28;20050;-66
2021/04/11 03:40:38;;;;;;;8.40;3.92;;;;;;;4.24;88.70;100417.16;4990350;28;20475;-66
2021/04/11 03:43:09;;;;;;;6.25;3.38;;;;;;;4.23;87.48;100419.69;4972647;28;20059;-65
2021/04/11 03:45:38;;;;;;;6.13;3.67;;;;;;;4.24;87.36;100413.69;4972071;28;20054;-66
2021/04/11 03:48:10;;;;;;;6.00;3.63;;;;;;;4.20;87.47;100415.41;4974534;28;20050;-64
2021/04/11 03:50:41;;;;;;;5.38;3.45;;;;;;;4.17;87.29;100421.44;4981151;28;20073;-66
2021/04/11 03:53:10;;;;;;;6.00;3.90;;;;;;;4.19;87.32;100424.00;4985134;28;20053;-66
2021/04/11 03:55:42;;;;;;;5.13;3.28;;;;;;;4.14;87.15;100431.72;4987168;28;20050;-64
2021/04/11 03:58:13;;;;;;;5.45;3.60;;;;;;;4.09;87.58;100430.84;4979492;28;20042;-64
2021/04/11 04:00:45;;;;;;;5.30;3.70;;;;;;;4.12;87.62;100441.13;4979045;28;20050;-64
2021/04/11 04:03:15;;;;;;;8.25;3.45;;;;;;;4.08;87.81;100425.69;4985373;28;20146;-65
2021/04/11 04:05:43;;;;;;;6.10;4.03;;;;;;;4.02;88.13;100427.41;4982567;28;20061;-64
2021/04/11 04:08:09;;;;;;;6.97;4.53;;;;;;;4.02;87.69;100432.53;4993749;28;20045;-65
2021/04/11 04:10:38;;;;;;;6.68;4.75;;;;;;;3.96;87.46;100445.38;4986388;28;20070;-66
2021/04/11 04:13:14;;;;;;;8.35;5.07;;;;;;;3.91;87.55;100441.06;4988156;28;20054;-64
2021/04/11 04:15:44;;;;;;;8.10;5.32;;;;;;;3.71;87.73;100447.00;4986043;28;20051;-65
2021/04/11 04:18:39;;;;;;;8.77;5.15;;;;;;;3.60;87.44;100443.50;4988544;28;20061;-65
2021/04/11 04:21:17;;;;;;;11.32;7.28;;;;;;;3.46;88.47;100448.59;4982315;28;20051;-66
2021/04/11 04:23:50;;;;;;;10.65;7.38;;;;;;;3.42;88.11;100440.00;4984325;28;20055;-66
2021/04/11 04:26:32;;;;;;;12.25;7.88;;;;;;;3.30;89.06;100445.94;4987965;28;20049;-66
2021/04/11 04:29:07;;;;;;;14.13;8.02;;;;;;;3.19;89.02;100453.59;4981751;28;20052;-65
2021/04/11 04:31:50;;;;;;;10.93;7.85;;;;;;;3.28;89.24;100468.19;4977034;28;20061;-65
2021/04/11 04:34:26;;;;;;;13.82;8.82;;;;;;;3.28;89.14;100483.63;4982908;28;20641;-65
2021/04/11 04:37:06;;;;;;;12.60;7.97;;;;;;;3.33;88.76;100481.09;4981214;28;20073;-66
2021/04/11 04:39:38;;;;;;;15.68;9.75;;;;;;;3.25;89.10;100481.91;4983318;28;20078;-65
2021/04/11 04:42:18;;;;;;;15.60;9.43;;;;;;;3.29;89.59;100485.34;4982960;28;20058;-64
2021/04/11 04:45:02;;;;;;;15.35;9.23;;;;;;;3.24;89.33;100487.03;4983740;28;20058;-66
2021/04/11 04:47:44;;;;;;;14.90;8.82;;;;;;;3.16;89.33;100486.97;4983131;28;20415;-64
2021/04/11 04:50:17;;;;;;;15.43;9.10;;;;;;;3.15;89.80;100476.66;4986867;28;20054;-66
2021/04/11 04:52:47;;;;;;;14.98;9.27;;;;;;;3.13;89.51;100478.41;4982300;28;20058;-67
2021/04/11 04:55:20;;;;;;;14.95;8.93;;;;;;;3.17;89.63;100486.13;4981857;28;20054;-65
2021/04/11 04:57:51;;;;;;;15.82;9.55;;;;;;;3.18;89.74;100482.72;4983332;28;20047;-65
2021/04/11 05:00:23;;;;;;;13.45;9.18;;;;;;;3.22;89.23;100478.47;4984722;28;20051;-66
2021/04/11 05:02:55;;;;;;;17.25;10.25;;;;;;;3.17;90.16;100478.44;4981649;28;20538;-65
2021/04/11 05:08:54;;;;;;;15.95;10.75;;;;;;;3.33;89.71;100488.78;4979953;23;20110;-65
2021/04/11 05:14:46;;;;;;;20.30;10.63;;;;;;;3.37;88.40;100504.25;4967198;28;20090;-65
2021/04/11 05:17:17;;;;;;;17.67;9.65;;;;;;;3.36;89.25;100515.38;4976219;28;20061;-66
2021/04/11 05:19:47;;;;;;;14.70;9.80;;;;;;;3.31;88.52;100519.66;4978026;28;20050;-65
2021/04/11 05:22:20;;;;;;;19.30;9.95;;;;;;;3.32;89.15;100529.09;4977639;28;20046;-65
2021/04/11 05:24:49;;;;;;;20.27;10.60;;;;;;;3.35;89.67;100536.78;4974548;28;20047;-65
2021/04/11 05:27:20;;;;;;;16.08;9.38;;;;;;;3.42;89.66;100536.00;4978775;28;20046;-65
2021/04/11 05:29:56;;;;;;;19.13;9.77;;;;;;;3.23;89.35;100539.31;4975324;28;20058;-66
2021/04/11 05:32:23;;;;;;;19.25;11.05;;;;;;;3.32;89.68;100536.78;4969211;28;20073;-65
2021/04/11 05:34:49;;;;;;;19.92;10.32;;;;;;;3.37;90.07;100540.25;4975434;28;20058;-65
2021/04/11 05:37:34;;;;;;;15.55;10.23;;;;;;;3.33;89.63;100545.34;4974140;28;20046;-66
2021/04/11 05:40:06;;;;;;;20.58;9.45;;;;;;;3.40;89.33;100566.00;4968829;28;20054;-65
2021/04/11 05:42:41;;;;;;;16.92;10.10;;;;;;;3.32;89.36;100570.22;4970470;28;20580;-66
2021/04/11 05:45:14;;;;;;;17.38;9.98;;;;;;;3.26;89.61;100573.59;4967228;28;20046;-65
2021/04/11 05:47:51;;;;;;;17.80;10.60;;;;;;;3.35;90.33;100577.94;4966885;28;20078;-65
2021/04/11 05:50:20;;;;;;;17.40;9.80;;;;;;;3.36;89.63;100573.66;4977873;28;20046;-65
2021/04/11 05:52:52;;;;;;;16.25;8.73;;;;;;;3.38;89.57;100572.81;4975215;28;20054;-65
2021/04/11 05:55:20;;;;;;;15.20;9.68;;;;;;;3.39;89.37;100591.69;4974556;28;20050;-66
2021/04/11 05:57:51;;;;;;;15.05;9.32;;;;;;;3.44;89.80;100595.16;4964522;28;20050;-65
2021/04/11 06:00:23;;;;;;;14.80;9.30;;;;;;;3.49;89.85;100608.03;4969092;28;20517;-66
2021/04/11 06:02:53;;;;;;;16.02;8.63;;;;;;;3.56;89.71;100607.22;4968322;28;20050;-66
2021/04/11 06:05:25;;;;;;;17.58;9.40;;;;;;;3.49;89.60;100610.63;4976114;28;20053;-65
2021/04/11 06:07:57;;;;;;;14.73;8.85;;;;;;;3.52;89.77;100611.50;4976508;28;20053;-67
2021/04/11 06:10:29;;;;;;;17.27;8.93;;;;;;;3.52;89.41;100611.50;4959761;28;20058;-65
2021/04/11 06:13:00;;;;;;;12.48;8.57;;;;;;;3.59;89.27;100609.84;4962276;28;20055;-65
2021/04/11 06:15:30;;;;;;;15.30;9.45;;;;;;;3.57;89.34;100591.84;4965405;28;20065;-65
2021/04/11 06:17:57;;;;;;;15.48;9.63;;;;;;;3.60;89.24;100601.28;4970540;28;20421;-65
2021/04/11 06:20:25;;;;;;;12.70;8.02;;;;;;;3.68;89.00;100602.19;4975014;28;20054;-65
2021/04/11 06:22:59;;;;;;;13.55;7.90;;;;;;;3.72;88.45;100609.09;4970499;28;20085;-65
2021/04/11 06:25:32;;;;;;;13.02;7.97;;;;;;;3.62;88.65;100625.31;4965782;28;20401;-65
2021/04/11 06:28:06;;;;;;;12.25;7.05;;;;;;;3.45;88.70;100614.00;4968348;28;20050;-65
2021/04/11 06:30:38;;;;;;;9.55;5.68;;;;;;;3.48;88.93;100620.06;4971636;28;20063;-65
2021/04/11 06:33:12;;;;;;;9.35;5.82;;;;;;;3.43;89.00;100632.00;4977716;28;20042;-65
2021/04/11 06:35:45;;;;;;;11.60;5.85;;;;;;;3.48;89.52;100634.59;4974877;28;20046;-64
2021/04/11 06:38:15;;;;;;;10.20;6.05;;;;;;;3.59;88.96;100640.69;4969239;28;20057;-66
2021/04/11 06:41:10;;;;;;;9.65;6.10;;;;;;;3.77;88.12;100641.69;4967749;28;20054;-66
2021/04/11 06:44:06;;;;;;;9.67;4.60;;;;;;;3.70;88.03;100657.09;4961657;28;20113;-66
2021/04/11 06:46:41;;;;;;;8.55;5.18;;;;;;;3.63;88.11;100657.88;4958022;28;20098;-65
2021/04/11 06:49:27;;;;;;;8.52;4.82;;;;;;;3.60;87.90;100660.44;4964243;28;20050;-65
2021/04/11 06:52:27;;;;;;;11.68;4.60;;;;;;;3.64;88.54;100667.34;4978017;28;20512;-65
2021/04/11 06:55:36;;;;;;;9.10;3.95;;;;;;;3.68;87.58;100691.38;4950057;28;20968;-66
2021/04/11 06:58:11;;;;;;;7.60;4.43;;;;;;;3.64;87.48;100687.03;4958652;28;20054;-65
2021/04/11 07:01:08;;;;;;;7.05;4.05;;;;;;;3.68;87.77;100696.50;4964943;28;20213;-65
2021/04/11 07:04:22;;;;;;;7.65;3.72;;;;;;;3.70;87.43;100690.53;4960046;28;20054;-66
2021/04/11 07:07:14;;;;;;;6.95;4.55;;;;;;;3.81;87.67;100690.59;4973312;28;20427;-66
2021/04/11 07:10:08;;;;;;;8.48;3.90;;;;;;;3.79;87.40;100683.72;4966903;28;20062;-65
2021/04/11 07:13:08;;;;;;;13.20;5.50;;;;;;;3.92;88.03;100670.09;4967605;28;20051;-65
2021/04/11 07:16:02;;;;;;;7.20;3.80;;;;;;;3.92;86.72;100675.25;4958683;28;20309;-65
2021/04/11 07:18:47;;;;;;;5.68;3.67;;;;;;;3.97;86.99;100663.25;4968606;28;20063;-66
2021/04/11 07:28:02;;;;;;;6.63;4.05;;;;;;;4.92;88.69;100658.56;4921644;29;20062;-65
2021/04/11 07:30:39;;;;;;;4.13;2.67;;;;;;;4.75;83.55;100664.53;4953487;28;20504;-66
2021/04/11 07:33:27;;;;;;;5.45;2.53;;;;;;;4.65;83.05;100681.66;4964203;28;20053;-65
2021/04/11 07:36:12;;;;;;;3.92;2.70;;;;;;;4.46;83.88;100675.56;4968626;28;20070;-66
2021/04/11 07:38:51;;;;;;;4.30;2.50;;;;;;;4.45;84.67;100683.28;4965989;28;21312;-65
2021/04/11 07:41:38;;;;;;;4.18;2.35;;;;;;;4.42;84.86;100678.97;4971994;28;20742;-65
2021/04/11 07:44:25;;;;;;;5.95;2.65;;;;;;;4.29;85.05;100690.94;4964681;28;20057;-66
2021/04/11 07:47:02;;;;;;;3.75;2.40;;;;;;;4.29;85.06;100697.81;4964722;28;20059;-65
2021/04/11 07:49:55;;;;;;;6.53;3.15;;;;;;;4.16;85.64;100700.28;4964716;28;20062;-65
2021/04/11 07:52:45;;;;;;;4.53;2.90;;;;;;;4.36;85.43;100704.72;4966448;28;20057;-65
2021/04/11 07:55:24;;;;;;;5.80;3.13;;;;;;;4.29;86.02;100716.69;4953167;28;20062;-65
2021/04/11 07:58:19;;;;;;;5.03;2.58;;;;;;;4.14;84.72;100714.03;4963721;28;20076;-65
2021/04/11 08:01:01;;;;;;;4.72;2.80;;;;;;;4.01;85.66;100721.66;4960851;28;20050;-65
2021/04/11 08:04:00;;;;;;;5.97;2.53;;;;;;;3.96;85.70;100731.03;4963622;28;20055;-65
2021/04/11 08:06:50;;;;;;;4.03;2.30;;;;;;;3.96;85.54;100736.16;4949823;28;20054;-65
2021/04/11 08:09:21;;;;;;;3.95;2.20;;;;;;;4.03;84.54;100742.22;4966799;28;20569;-65
2021/04/11 08:12:16;;;;;;;4.97;2.35;;;;;;;4.02;85.26;100743.97;4961109;28;20042;-65
2021/04/11 08:14:52;;;;;;;5.13;2.40;;;;;;;3.86;85.26;100742.09;4964945;28;20043;-65
2021/04/11 08:17:46;;;;;;;4.53;2.20;;;;;;;3.92;86.22;100747.31;4965102;28;20053;-65
2021/04/11 08:27:22;;;;;;;5.00;2.42;;;;;;;3.83;86.84;100757.53;4969651;28;20041;-66
2021/04/11 08:33:33;;;;;;;3.75;2.00;;;;;;;3.79;84.91;100771.19;4967197;28;20048;-66
2021/04/11 08:43:02;;;;;;;5.22;1.90;;;;;;;4.16;84.68;100795.56;4970381;28;20148;-65
2021/04/11 08:52:23;;;;;;;3.72;1.83;;;;;;;3.99;84.68;100805.69;4966593;28;20085;-65
2021/04/11 08:54:51;;;;;;;3.45;2.03;;;;;;;4.02;84.02;100810.88;4971774;28;20059;-65
2021/04/11 08:57:39;;;;;;;3.17;1.83;;;;;;;3.94;84.70;100820.25;4970100;28;20047;-65
2021/04/11 09:03:52;;;;;;;3.50;1.33;;;;;;;3.90;83.23;100818.47;4965899;28;20149;-65
2021/04/11 09:13:18;;;;;;;3.80;1.48;;;;;;;4.11;84.08;100828.09;4968830;28;20065;-65
2021/04/11 09:15:50;;;;;;;3.42;1.30;;;;;;;4.26;82.81;100841.97;4973224;28;20448;-66
2021/04/11 09:21:36;;;;;;;3.95;0.90;;;;;;;4.46;80.45;100840.41;4962215;28;20103;-65
2021/04/11 09:24:58;;;;;;;2.00;1.23;;;;;;;4.52;81.04;100844.75;4964590;28;20534;-65
2021/04/11 09:27:46;;;;;;;3.75;1.15;;;;;;;4.77;82.23;100827.75;4966561;28;20520;-65
2021/04/11 09:30:27;;;;;;;1.88;0.90;;;;;;;4.88;81.25;100834.69;4974852;28;20049;-65
2021/04/11 09:33:22;;;;;;;3.78;0.98;;;;;;;4.94;81.33;100845.88;4967536;28;20058;-65
2021/04/11 09:35:57;;;;;;;2.08;0.90;;;;;;;4.85;80.91;100847.53;4971280;28;20051;-66
2021/04/11 09:38:44;;;;;;;;;;;;;;;4.73;79.55;100848.34;4971587;28;20054;-65
2021/04/11 09:41:35;;;;;;;1.67;0.88;;;;;;;4.74;80.22;100850.91;4974033;28;20343;-66
2021/04/11 09:44:20;;;;;;;2.75;1.17;;;;;;;4.94;79.68;100869.06;4964674;28;20043;-66
2021/04/11 09:47:05;;;;;;;;;;;;;;;4.85;79.62;100866.44;4969575;28;20057;-66
2021/04/11 09:49:43;;;;;;;2.17;1.05;;;;;;;4.65;79.17;100867.16;4972475;28;19926;-65
2021/04/11 09:52:26;;;;;;;2.17;1.08;;;;;;;4.64;79.23;100862.00;4965193;28;20059;-65
2021/04/11 09:59:01;;;;;;;2.80;1.00;;;;;;;4.51;80.02;100874.78;4967316;28;20041;-65
2021/04/11 10:01:40;;;;;;;2.13;1.00;;;;;;;4.41;80.25;100883.28;4880512;29;20056;-65
2021/04/11 10:04:27;;;;;;;2.20;1.05;;;;;;;4.43;81.56;100884.16;4964034;28;20128;-65
2021/04/11 10:10:41;;;;;;;3.08;1.10;;;;;;;4.92;79.89;100885.38;4968605;28;20534;-65
2021/04/11 10:13:34;;;;;;;2.08;0.90;;;;;;;4.86;78.92;100888.78;4972103;28;20069;-65
2021/04/11 10:19:59;;;;;;;3.20;1.02;;;;;;;4.82;78.22;100902.50;4961889;28;20712;-68
2021/04/11 10:22:37;;;;;;;3.25;1.30;;;;;;;4.75;79.71;100903.28;4892590;29;20198;-67
2021/04/11 10:25:22;;;;;;;3.15;0.98;;;;;;;4.88;79.54;100912.84;4892403;29;20048;-67
2021/04/11 10:28:00;;;;;;;2.80;1.30;;;;;;;5.02;78.65;100910.38;4947273;28;20043;-65
2021/04/11 10:30:27;;;;;;;2.40;1.17;;;;;;;5.02;78.16;100923.25;4970327;28;20404;-68
2021/04/11 10:33:01;;;;;;;3.55;1.23;;;;;;;5.08;78.75;100917.28;4972371;28;20563;-68
2021/04/11 10:35:33;;;;;;;4.47;1.33;;;;;;;5.11;78.22;100922.47;4969954;28;20082;-68
2021/04/11 10:38:06;;;;;;;4.15;1.40;;;;;;;5.19;77.89;100925.09;4966492;28;20051;-67
2021/04/11 10:40:48;;;;;;;3.28;1.20;;;;;;;5.13;78.31;100923.34;4966894;28;20074;-67
2021/04/11 10:43:29;;;;;;;4.70;1.90;;;;;;;5.11;78.71;100928.47;4965455;28;20046;-68
2021/04/11 10:46:03;;;;;;;4.53;1.98;;;;;;;5.16;79.11;100932.81;4963948;28;20047;-69
2021/04/11 10:52:13;;;;;;;4.05;1.55;;;;;;;4.97;79.37;100933.53;4965026;28;20058;-67
2021/04/11 10:54:57;;;;;;;4.10;1.55;;;;;;;4.81;79.87;100939.44;4966312;28;20573;-65
2021/04/11 10:58:11;;;;;;;3.80;1.60;;;;;;;4.66;78.80;100940.19;4953338;28;20051;-69
2021/04/11 11:00:41;;;;;;;5.88;2.25;;;;;;;4.74;80.07;100953.13;4925817;28;20393;-69
2021/04/11 11:03:43;;;;;;;5.53;1.60;;;;;;;4.72;79.15;100954.81;4966427;28;20097;-68
2021/04/11 11:06:29;;;;;;;5.20;1.60;;;;;;;4.61;78.59;100953.03;4951621;28;20058;-69
2021/04/11 11:09:25;;;;;;;6.18;1.80;;;;;;;4.54;79.06;100950.38;4962465;28;20047;-67
2021/04/11 11:12:02;;;;;;;;;;;;;;;4.46;78.04;100965.75;4964178;28;20101;-68
2021/04/11 11:15:01;;;;;;;9.13;1.85;;;;;;;4.51;78.84;100962.38;4967993;28;19922;-68
2021/04/11 11:17:43;;;;;;;5.18;1.65;;;;;;;4.53;78.06;100962.41;4966537;28;20062;-67
2021/04/11 11:20:29;;;;;;;4.75;1.73;;;;;;;4.71;78.63;100959.09;4968787;28;20425;-68
2021/04/11 11:23:22;;;;;;;4.75;1.80;;;;;;;4.80;78.44;100966.91;4964255;28;20050;-68
2021/04/11 11:26:13;;;;;;;11.57;5.25;;;;;;;5.20;77.90;100970.63;4963545;28;20062;-70
2021/04/11 11:29:35;;;;;;;8.23;1.95;;;;;;;5.31;75.30;100969.00;4962520;28;20054;-69
2021/04/11 11:32:06;;;;;;;5.43;1.73;;;;;;;5.39;75.84;100975.06;4960322;28;20093;-69
2021/04/11 11:38:05;;;;;;;5.45;1.60;;;;;;;5.48;74.56;100992.31;4964786;28;20098;-68
2021/04/11 11:40:37;;;;;;;6.40;1.80;;;;;;;5.48;73.86;100986.31;4966183;28;20150;-68
2021/04/11 11:43:16;;;;;;;8.77;2.35;;;;;;;5.66;73.97;100977.78;4968102;28;20106;-68
2021/04/11 11:45:52;;;;;;;6.90;2.17;;;;;;;5.90;74.17;100984.78;4965518;28;20054;-68
2021/04/11 11:48:37;;;;;;;5.07;1.45;;;;;;;6.13;71.07;100987.50;4963304;28;20051;-69
2021/04/11 11:51:09;;;;;;;7.82;1.40;;;;;;;6.29;72.60;100984.94;4966572;28;20050;-68
2021/04/11 11:53:40;;;;;;;5.32;1.52;;;;;;;6.58;70.59;100992.75;4970223;28;20561;-68
2021/04/11 11:56:20;;;;;;;4.80;1.30;;;;;;;6.63;70.13;101001.38;4963154;28;20512;-68
2021/04/11 11:58:51;;;;;;;5.15;1.63;;;;;;;6.80;68.76;100997.94;4961340;28;20082;-68
2021/04/11 12:01:31;;;;;;;5.72;1.65;;;;;;;6.82;68.59;100998.81;4966373;28;20116;-68
2021/04/11 12:04:14;;;;;;;5.65;1.30;;;;;;;6.83;70.03;101008.28;4971487;28;20120;-69
2021/04/11 12:06:46;;;;;;;6.35;1.30;;;;;;;6.83;69.13;101014.34;4969877;28;20049;-68
2021/04/11 12:09:18;;;;;;;6.30;1.60;;;;;;;6.81;69.74;101010.88;4961242;28;20061;-68
2021/04/11 12:11:50;;;;;;;3.53;1.10;;;;;;;6.64;70.25;101013.44;4977478;28;20061;-68
2021/04/11 12:14:23;;;;;;;5.70;1.52;;;;;;;6.61;68.74;101010.00;4969842;28;20062;-68
2021/04/11 12:17:01;;;;;;;3.40;1.25;;;;;;;6.51;69.98;101012.56;4978349;28;20413;-68
2021/04/11 12:19:32;;;;;;;4.35;1.27;;;;;;;6.70;71.45;101017.75;4977015;28;20066;-68
2021/04/11 12:22:03;;;;;;;7.30;1.88;;;;;;;6.61;70.36;101021.19;4972914;28;20051;-68
2021/04/11 12:24:34;;;;;;;5.32;1.40;;;;;;;6.76;69.01;101022.06;4974177;28;20042;-69
2021/04/11 12:27:03;;;;;;;4.03;1.52;;;;;;;6.60;68.90;101021.19;4976823;28;20047;-68
2021/04/11 12:29:31;;;;;;;5.03;1.15;;;;;;;6.65;68.61;101016.88;4979693;28;20054;-69
2021/04/11 12:32:12;;;;;;;8.52;1.30;;;;;;;6.48;68.82;101012.53;4971305;28;20054;-69
2021/04/11 12:34:48;;;;;;;3.70;1.05;;;;;;;6.26;70.69;101029.72;4974333;28;20047;-68
2021/04/11 12:37:24;;;;;;;2.85;1.20;;;;;;;6.03;71.84;101037.38;4977707;28;20057;-68
2021/04/11 12:40:03;;;;;;;3.03;1.17;;;;;;;6.03;71.01;101034.81;4972564;28;20054;-67
2021/04/11 12:42:34;;;;;;;6.80;1.50;;;;;;;6.07;71.95;101041.69;4967174;28;20082;-67
2021/04/11 12:45:07;;;;;;;3.15;1.13;;;;;;;5.94;70.88;101057.97;4977594;28;20074;-68
2021/04/11 12:47:44;;;;;;;3.78;1.20;;;;;;;5.62;71.94;101061.22;4964746;28;20047;-66
2021/04/11 12:50:19;;;;;;;3.13;1.13;;;;;;;5.49;73.71;101074.03;4970620;28;20057;-66
2021/04/11 12:52:57;;;;;;;5.43;1.25;;;;;;;5.37;75.92;101068.78;4967821;28;20416;-66
2021/04/11 12:55:28;;;;;;;4.18;1.27;;;;;;;5.45;75.41;101067.09;4969545;28;20053;-67
2021/04/11 12:57:59;;;;;;;4.03;1.10;;;;;;;5.40;75.49;101069.66;4974444;28;20058;-66
2021/04/11 13:00:31;;;;;;;3.38;1.10;;;;;;;5.54;75.85;101059.44;4974176;28;20591;-67
2021/04/11 13:03:08;;;;;;;4.68;1.20;;;;;;;5.84;74.66;101059.63;4977186;28;20047;-66
2021/04/11 13:05:40;;;;;;;3.08;1.05;;;;;;;5.85;73.33;101059.63;4967835;28;20050;-65
2021/04/11 13:08:12;;;;;;;2.38;0.88;;;;;;;6.00;71.58;101060.59;4972120;28;20051;-67
2021/04/11 13:10:51;;;;;;;1.95;0.80;;;;;;;5.96;70.07;101066.56;4962350;28;20066;-67
2021/04/11 13:13:23;;;;;;;3.33;0.80;;;;;;;6.00;71.05;101078.69;4974530;28;20148;-67
2021/04/11 13:15:53;;;;;;;3.35;1.00;;;;;;;6.21;70.52;101088.22;4978235;28;20489;-66